sensor_id;sensor_type;location;lat;lon;timestamp;P1;durP1;ratioP1;P2;durP2;ratioP2
75446;SDS011;64024;55.820;37.574;2023-06-05T00:01:36;3.70;;;2.40;;
75446;SDS011;64024;55.820;37.574;2023-06-05T00:04:02;4.32;;;1.98;;
75446;SDS011;64024;55.820;37.574;2023-06-05T00:06:28;2.40;;;1.85;;
75446;SDS011;64024;55.820;37.574;2023-06-05T00:08:54;3.50;;;2.47;;
75446;SDS011;64024;55.820;37.574;2023-06-05T00:11:20;3.72;;;2.30;;
75446;SDS011;64024;55.820;37.574;2023-06-05T00:13:47;3.95;;;2.50;;
75446;SDS011;64024;55.820;37.574;2023-06-05T00:16:14;6.10;;;2.55;;
75446;SDS011;64024;55.820;37.574;2023-06-05T00:18:40;6.05;;;2.47;;
75446;SDS011;64024;55.820;37.574;2023-06-05T00:21:05;6.25;;;2.53;;
75446;SDS011;64024;55.820;37.574;2023-06-05T00:23:31;5.10;;;2.60;;
75446;SDS011;64024;55.820;37.574;2023-06-05T00:25:58;5.53;;;2.30;;
75446;SDS011;64024;55.820;37.574;2023-06-05T00:28:24;8.30;;;3.50;;
75446;SDS011;64024;55.820;37.574;2023-06-05T00:30:50;10.23;;;4.07;;
75446;SDS011;64024;55.820;37.574;2023-06-05T00:33:16;7.70;;;3.92;;
75446;SDS011;64024;55.820;37.574;2023-06-05T00:35:42;11.05;;;3.50;;
75446;SDS011;64024;55.820;37.574;2023-06-05T00:38:08;7.72;;;2.83;;
75446;SDS011;64024;55.820;37.574;2023-06-05T00:40:34;4.05;;;2.38;;
75446;SDS011;64024;55.820;37.574;2023-06-05T00:43:00;4.68;;;2.85;;
75446;SDS011;64024;55.820;37.574;2023-06-05T00:45:26;10.35;;;3.83;;
75446;SDS011;64024;55.820;37.574;2023-06-05T00:47:51;10.93;;;4.25;;
75446;SDS011;64024;55.820;37.574;2023-06-05T00:50:17;9.27;;;3.65;;
75446;SDS011;64024;55.820;37.574;2023-06-05T00:52:46;9.88;;;3.63;;
75446;SDS011;64024;55.820;37.574;2023-06-05T00:55:14;8.52;;;3.92;;
75446;SDS011;64024;55.820;37.574;2023-06-05T00:57:40;6.72;;;3.17;;
75446;SDS011;64024;55.820;37.574;2023-06-05T01:00:06;6.40;;;2.92;;
75446;SDS011;64024;55.820;37.574;2023-06-05T01:02:34;19.42;;;5.65;;
75446;SDS011;64024;55.820;37.574;2023-06-05T01:05:02;14.18;;;5.28;;
75446;SDS011;64024;55.820;37.574;2023-06-05T01:07:29;11.30;;;4.70;;
75446;SDS011;64024;55.820;37.574;2023-06-05T01:09:58;9.35;;;4.47;;
75446;SDS011;64024;55.820;37.574;2023-06-05T01:15:01;7.47;;;3.63;;
75446;SDS011;64024;55.820;37.574;2023-06-05T01:17:27;8.05;;;4.30;;
75446;SDS011;64024;55.820;37.574;2023-06-05T01:19:55;14.25;;;6.25;;
75446;SDS011;64024;55.820;37.574;2023-06-05T01:22:25;13.88;;;5.20;;
75446;SDS011;64024;55.820;37.574;2023-06-05T01:24:51;7.85;;;4.60;;
75446;SDS011;64024;55.820;37.574;2023-06-05T01:30:21;7.80;;;4.55;;
75446;SDS011;64024;55.820;37.574;2023-06-05T01:35:27;7.45;;;4.28;;
75446;SDS011;64024;55.820;37.574;2023-06-05T01:37:58;11.48;;;6.05;;
75446;SDS011;64024;55.820;37.574;2023-06-05T01:40:28;11.45;;;4.75;;
75446;SDS011;64024;55.820;37.574;2023-06-05T01:42:56;10.40;;;5.07;;
75446;SDS011;64024;55.820;37.574;2023-06-05T01:45:24;11.48;;;4.80;;
75446;SDS011;64024;55.820;37.574;2023-06-05T01:47:50;8.82;;;5.30;;
75446;SDS011;64024;55.820;37.574;2023-06-05T01:50:16;8.38;;;5.13;;
75446;SDS011;64024;55.820;37.574;2023-06-05T01:52:43;8.30;;;4.53;;
75446;SDS011;64024;55.820;37.574;2023-06-05T01:55:29;14.35;;;5.43;;
75446;SDS011;64024;55.820;37.574;2023-06-05T01:57:55;13.68;;;5.85;;
75446;SDS011;64024;55.820;37.574;2023-06-05T02:00:20;7.82;;;4.57;;
75446;SDS011;64024;55.820;37.574;2023-06-05T02:02:46;10.85;;;5.28;;
75446;SDS011;64024;55.820;37.574;2023-06-05T02:05:14;14.80;;;5.10;;
75446;SDS011;64024;55.820;37.574;2023-06-05T02:07:44;9.43;;;4.70;;
75446;SDS011;64024;55.820;37.574;2023-06-05T02:10:23;7.80;;;4.72;;
75446;SDS011;64024;55.820;37.574;2023-06-05T02:12:49;13.07;;;5.85;;
75446;SDS011;64024;55.820;37.574;2023-06-05T02:15:15;12.95;;;5.40;;
75446;SDS011;64024;55.820;37.574;2023-06-05T02:17:42;11.70;;;5.38;;
75446;SDS011;64024;55.820;37.574;2023-06-05T02:20:15;9.80;;;5.43;;
75446;SDS011;64024;55.820;37.574;2023-06-05T02:22:41;11.35;;;5.07;;
75446;SDS011;64024;55.820;37.574;2023-06-05T02:25:08;8.10;;;4.90;;
75446;SDS011;64024;55.820;37.574;2023-06-05T02:27:36;8.02;;;5.03;;
75446;SDS011;64024;55.820;37.574;2023-06-05T02:30:02;10.88;;;5.57;;
75446;SDS011;64024;55.820;37.574;2023-06-05T02:32:28;10.45;;;5.15;;
75446;SDS011;64024;55.820;37.574;2023-06-05T02:34:56;11.80;;;5.75;;
75446;SDS011;64024;55.820;37.574;2023-06-05T02:37:23;7.47;;;5.15;;
75446;SDS011;64024;55.820;37.574;2023-06-05T02:42:15;6.82;;;4.47;;
75446;SDS011;64024;55.820;37.574;2023-06-05T02:44:41;7.15;;;4.07;;
75446;SDS011;64024;55.820;37.574;2023-06-05T02:47:07;11.75;;;5.55;;
75446;SDS011;64024;55.820;37.574;2023-06-05T02:49:33;13.48;;;5.57;;
75446;SDS011;64024;55.820;37.574;2023-06-05T02:51:59;9.38;;;5.22;;
75446;SDS011;64024;55.820;37.574;2023-06-05T02:54:25;8.38;;;4.30;;
75446;SDS011;64024;55.820;37.574;2023-06-05T02:56:53;8.07;;;4.90;;
75446;SDS011;64024;55.820;37.574;2023-06-05T02:59:22;7.60;;;4.90;;
75446;SDS011;64024;55.820;37.574;2023-06-05T03:01:50;7.40;;;4.43;;
75446;SDS011;64024;55.820;37.574;2023-06-05T03:04:17;13.80;;;6.38;;
75446;SDS011;64024;55.820;37.574;2023-06-05T03:06:52;10.25;;;5.38;;
75446;SDS011;64024;55.820;37.574;2023-06-05T03:09:21;10.60;;;5.65;;
75446;SDS011;64024;55.820;37.574;2023-06-05T03:11:47;13.65;;;6.18;;
75446;SDS011;64024;55.820;37.574;2023-06-05T03:14:13;8.27;;;5.03;;
75446;SDS011;64024;55.820;37.574;2023-06-05T03:16:39;7.10;;;4.40;;
75446;SDS011;64024;55.820;37.574;2023-06-05T03:19:09;7.40;;;4.72;;
75446;SDS011;64024;55.820;37.574;2023-06-05T03:21:36;9.23;;;5.43;;
75446;SDS011;64024;55.820;37.574;2023-06-05T03:26:30;9.45;;;4.85;;
75446;SDS011;64024;55.820;37.574;2023-06-05T03:28:57;7.28;;;4.90;;
75446;SDS011;64024;55.820;37.574;2023-06-05T03:31:24;6.90;;;4.32;;
75446;SDS011;64024;55.820;37.574;2023-06-05T03:33:49;10.52;;;5.72;;
75446;SDS011;64024;55.820;37.574;2023-06-05T03:36:16;8.95;;;5.40;;
75446;SDS011;64024;55.820;37.574;2023-06-05T03:38:42;9.23;;;5.65;;
75446;SDS011;64024;55.820;37.574;2023-06-05T03:41:09;6.90;;;4.95;;
75446;SDS011;64024;55.820;37.574;2023-06-05T03:43:35;10.52;;;5.78;;
75446;SDS011;64024;55.820;37.574;2023-06-05T03:46:01;12.18;;;5.55;;
75446;SDS011;64024;55.820;37.574;2023-06-05T03:48:28;9.85;;;5.15;;
75446;SDS011;64024;55.820;37.574;2023-06-05T03:50:54;10.43;;;5.70;;
75446;SDS011;64024;55.820;37.574;2023-06-05T03:53:21;9.75;;;5.22;;
75446;SDS011;64024;55.820;37.574;2023-06-05T03:55:48;12.82;;;6.90;;
75446;SDS011;64024;55.820;37.574;2023-06-05T03:58:14;12.65;;;6.78;;
75446;SDS011;64024;55.820;37.574;2023-06-05T04:00:47;13.07;;;5.80;;
75446;SDS011;64024;55.820;37.574;2023-06-05T04:03:14;14.32;;;6.32;;
75446;SDS011;64024;55.820;37.574;2023-06-05T04:05:40;10.68;;;5.65;;
75446;SDS011;64024;55.820;37.574;2023-06-05T04:08:07;10.60;;;5.43;;
75446;SDS011;64024;55.820;37.574;2023-06-05T04:10:35;9.15;;;5.10;;
75446;SDS011;64024;55.820;37.574;2023-06-05T04:13:01;12.15;;;5.68;;
75446;SDS011;64024;55.820;37.574;2023-06-05T04:15:28;16.45;;;7.20;;
75446;SDS011;64024;55.820;37.574;2023-06-05T04:17:54;15.57;;;6.22;;
75446;SDS011;64024;55.820;37.574;2023-06-05T04:20:19;15.25;;;5.63;;
75446;SDS011;64024;55.820;37.574;2023-06-05T04:22:45;8.55;;;5.43;;
75446;SDS011;64024;55.820;37.574;2023-06-05T04:25:11;8.73;;;5.50;;
75446;SDS011;64024;55.820;37.574;2023-06-05T04:27:38;11.48;;;6.00;;
75446;SDS011;64024;55.820;37.574;2023-06-05T04:30:05;7.43;;;4.97;;
75446;SDS011;64024;55.820;37.574;2023-06-05T04:32:32;6.72;;;5.22;;
75446;SDS011;64024;55.820;37.574;2023-06-05T04:35:02;7.10;;;4.93;;
75446;SDS011;64024;55.820;37.574;2023-06-05T04:37:34;11.70;;;5.97;;
75446;SDS011;64024;55.820;37.574;2023-06-05T04:40:01;7.72;;;5.30;;
75446;SDS011;64024;55.820;37.574;2023-06-05T04:42:35;9.73;;;5.28;;
75446;SDS011;64024;55.820;37.574;2023-06-05T04:45:03;9.95;;;5.95;;
75446;SDS011;64024;55.820;37.574;2023-06-05T04:47:31;7.78;;;5.53;;
75446;SDS011;64024;55.820;37.574;2023-06-05T04:50:03;7.97;;;5.25;;
75446;SDS011;64024;55.820;37.574;2023-06-05T04:52:30;8.07;;;5.47;;
75446;SDS011;64024;55.820;37.574;2023-06-05T04:54:57;7.38;;;5.22;;
75446;SDS011;64024;55.820;37.574;2023-06-05T04:57:25;10.77;;;6.32;;
75446;SDS011;64024;55.820;37.574;2023-06-05T04:59:52;14.35;;;6.40;;
75446;SDS011;64024;55.820;37.574;2023-06-05T05:02:18;8.77;;;6.43;;
75446;SDS011;64024;55.820;37.574;2023-06-05T05:04:43;10.77;;;6.18;;
75446;SDS011;64024;55.820;37.574;2023-06-05T05:07:09;11.77;;;6.25;;
75446;SDS011;64024;55.820;37.574;2023-06-05T05:09:40;9.80;;;7.10;;
75446;SDS011;64024;55.820;37.574;2023-06-05T05:12:07;10.57;;;6.20;;
75446;SDS011;64024;55.820;37.574;2023-06-05T05:14:33;8.95;;;6.60;;
75446;SDS011;64024;55.820;37.574;2023-06-05T05:16:58;10.38;;;6.10;;
75446;SDS011;64024;55.820;37.574;2023-06-05T05:19:26;9.88;;;5.80;;
75446;SDS011;64024;55.820;37.574;2023-06-05T05:21:52;12.85;;;6.60;;
75446;SDS011;64024;55.820;37.574;2023-06-05T05:24:18;10.10;;;5.85;;
75446;SDS011;64024;55.820;37.574;2023-06-05T05:26:44;8.57;;;7.53;;
75446;SDS011;64024;55.820;37.574;2023-06-05T05:29:10;10.57;;;6.43;;
75446;SDS011;64024;55.820;37.574;2023-06-05T05:31:35;10.40;;;6.22;;
75446;SDS011;64024;55.820;37.574;2023-06-05T05:34:01;9.10;;;6.53;;
75446;SDS011;64024;55.820;37.574;2023-06-05T05:36:28;8.77;;;5.88;;
75446;SDS011;64024;55.820;37.574;2023-06-05T05:38:54;9.32;;;6.05;;
75446;SDS011;64024;55.820;37.574;2023-06-05T05:41:20;7.90;;;5.78;;
75446;SDS011;64024;55.820;37.574;2023-06-05T05:43:46;8.30;;;6.55;;
75446;SDS011;64024;55.820;37.574;2023-06-05T05:46:12;8.32;;;7.28;;
75446;SDS011;64024;55.820;37.574;2023-06-05T05:48:38;8.02;;;5.70;;
75446;SDS011;64024;55.820;37.574;2023-06-05T05:51:07;7.07;;;5.68;;
75446;SDS011;64024;55.820;37.574;2023-06-05T05:53:32;6.97;;;5.38;;
75446;SDS011;64024;55.820;37.574;2023-06-05T05:55:59;8.38;;;6.10;;
75446;SDS011;64024;55.820;37.574;2023-06-05T05:58:25;8.48;;;6.28;;
75446;SDS011;64024;55.820;37.574;2023-06-05T06:00:51;9.10;;;6.45;;
75446;SDS011;64024;55.820;37.574;2023-06-05T06:03:17;8.90;;;6.57;;
75446;SDS011;64024;55.820;37.574;2023-06-05T06:05:44;6.50;;;5.80;;
75446;SDS011;64024;55.820;37.574;2023-06-05T06:08:10;8.20;;;6.03;;
75446;SDS011;64024;55.820;37.574;2023-06-05T06:10:36;6.63;;;5.93;;
75446;SDS011;64024;55.820;37.574;2023-06-05T06:13:02;7.72;;;6.20;;
75446;SDS011;64024;55.820;37.574;2023-06-05T06:15:32;6.85;;;5.60;;
75446;SDS011;64024;55.820;37.574;2023-06-05T06:17:58;8.27;;;5.90;;
75446;SDS011;64024;55.820;37.574;2023-06-05T06:20:30;9.43;;;6.35;;
75446;SDS011;64024;55.820;37.574;2023-06-05T06:22:56;8.35;;;6.60;;
75446;SDS011;64024;55.820;37.574;2023-06-05T06:25:22;8.77;;;6.60;;
75446;SDS011;64024;55.820;37.574;2023-06-05T06:27:50;11.32;;;6.95;;
75446;SDS011;64024;55.820;37.574;2023-06-05T06:30:18;8.10;;;6.00;;
75446;SDS011;64024;55.820;37.574;2023-06-05T06:32:45;7.47;;;6.25;;
75446;SDS011;64024;55.820;37.574;2023-06-05T06:35:11;8.45;;;6.72;;
75446;SDS011;64024;55.820;37.574;2023-06-05T06:37:39;7.25;;;6.45;;
75446;SDS011;64024;55.820;37.574;2023-06-05T06:40:08;10.10;;;6.22;;
75446;SDS011;64024;55.820;37.574;2023-06-05T06:42:37;7.38;;;6.53;;
75446;SDS011;64024;55.820;37.574;2023-06-05T06:45:03;6.70;;;6.00;;
75446;SDS011;64024;55.820;37.574;2023-06-05T06:47:30;7.47;;;6.65;;
75446;SDS011;64024;55.820;37.574;2023-06-05T06:49:55;7.95;;;6.00;;
75446;SDS011;64024;55.820;37.574;2023-06-05T06:52:22;6.90;;;5.90;;
75446;SDS011;64024;55.820;37.574;2023-06-05T06:54:48;7.15;;;6.50;;
75446;SDS011;64024;55.820;37.574;2023-06-05T06:57:14;7.63;;;5.72;;
75446;SDS011;64024;55.820;37.574;2023-06-05T06:59:40;8.80;;;7.43;;
75446;SDS011;64024;55.820;37.574;2023-06-05T07:02:13;6.50;;;5.78;;
75446;SDS011;64024;55.820;37.574;2023-06-05T07:07:12;8.00;;;5.97;;
75446;SDS011;64024;55.820;37.574;2023-06-05T07:09:40;8.20;;;5.50;;
75446;SDS011;64024;55.820;37.574;2023-06-05T07:12:09;8.02;;;6.57;;
75446;SDS011;64024;55.820;37.574;2023-06-05T07:14:37;8.80;;;6.40;;
75446;SDS011;64024;55.820;37.574;2023-06-05T07:17:04;9.40;;;6.63;;
75446;SDS011;64024;55.820;37.574;2023-06-05T07:19:31;8.68;;;6.43;;
75446;SDS011;64024;55.820;37.574;2023-06-05T07:21:59;8.95;;;6.57;;
75446;SDS011;64024;55.820;37.574;2023-06-05T07:24:26;7.65;;;6.65;;
75446;SDS011;64024;55.820;37.574;2023-06-05T07:26:57;6.13;;;5.53;;
75446;SDS011;64024;55.820;37.574;2023-06-05T07:29:24;6.70;;;6.10;;
75446;SDS011;64024;55.820;37.574;2023-06-05T07:31:52;7.25;;;6.60;;
75446;SDS011;64024;55.820;37.574;2023-06-05T07:34:19;7.35;;;6.03;;
75446;SDS011;64024;55.820;37.574;2023-06-05T07:36:46;7.93;;;5.45;;
75446;SDS011;64024;55.820;37.574;2023-06-05T07:39:16;7.70;;;5.25;;
75446;SDS011;64024;55.820;37.574;2023-06-05T07:41:42;6.97;;;5.32;;
75446;SDS011;64024;55.820;37.574;2023-06-05T07:44:12;6.88;;;5.43;;
75446;SDS011;64024;55.820;37.574;2023-06-05T07:46:40;6.40;;;4.82;;
75446;SDS011;64024;55.820;37.574;2023-06-05T07:49:06;5.93;;;5.32;;
75446;SDS011;64024;55.820;37.574;2023-06-05T07:51:32;7.00;;;6.30;;
75446;SDS011;64024;55.820;37.574;2023-06-05T07:54:11;7.05;;;6.30;;
75446;SDS011;64024;55.820;37.574;2023-06-05T07:56:38;6.88;;;6.18;;
75446;SDS011;64024;55.820;37.574;2023-06-05T07:59:05;7.20;;;5.82;;
75446;SDS011;64024;55.820;37.574;2023-06-05T08:01:32;5.40;;;4.63;;
75446;SDS011;64024;55.820;37.574;2023-06-05T08:04:02;5.50;;;3.15;;
75446;SDS011;64024;55.820;37.574;2023-06-05T08:06:29;3.65;;;1.92;;
75446;SDS011;64024;55.820;37.574;2023-06-05T08:08:55;7.40;;;2.95;;
75446;SDS011;64024;55.820;37.574;2023-06-05T08:11:21;4.00;;;1.52;;
75446;SDS011;64024;55.820;37.574;2023-06-05T08:13:47;5.00;;;1.65;;
75446;SDS011;64024;55.820;37.574;2023-06-05T08:16:13;2.80;;;1.80;;
75446;SDS011;64024;55.820;37.574;2023-06-05T08:18:40;6.32;;;4.55;;
75446;SDS011;64024;55.820;37.574;2023-06-05T08:21:07;4.35;;;3.95;;
75446;SDS011;64024;55.820;37.574;2023-06-05T08:23:33;4.75;;;4.00;;
75446;SDS011;64024;55.820;37.574;2023-06-05T08:25:58;4.65;;;3.47;;
75446;SDS011;64024;55.820;37.574;2023-06-05T08:28:24;5.95;;;4.03;;
75446;SDS011;64024;55.820;37.574;2023-06-05T08:30:50;5.35;;;2.67;;
75446;SDS011;64024;55.820;37.574;2023-06-05T08:33:17;3.50;;;1.90;;
75446;SDS011;64024;55.820;37.574;2023-06-05T08:35:46;2.88;;;1.50;;
75446;SDS011;64024;55.820;37.574;2023-06-05T08:38:11;1.92;;;1.45;;
75446;SDS011;64024;55.820;37.574;2023-06-05T08:40:37;3.55;;;1.30;;
75446;SDS011;64024;55.820;37.574;2023-06-05T08:43:04;9.13;;;2.65;;
75446;SDS011;64024;55.820;37.574;2023-06-05T08:45:30;4.55;;;1.73;;
75446;SDS011;64024;55.820;37.574;2023-06-05T08:47:58;2.97;;;1.10;;
75446;SDS011;64024;55.820;37.574;2023-06-05T08:50:25;2.00;;;1.17;;
75446;SDS011;64024;55.820;37.574;2023-06-05T08:52:53;4.68;;;1.75;;
75446;SDS011;64024;55.820;37.574;2023-06-05T08:55:23;4.70;;;1.73;;
75446;SDS011;64024;55.820;37.574;2023-06-05T08:57:50;3.80;;;2.00;;
75446;SDS011;64024;55.820;37.574;2023-06-05T09:00:17;4.65;;;1.70;;
75446;SDS011;64024;55.820;37.574;2023-06-05T09:02:44;6.63;;;2.53;;
75446;SDS011;64024;55.820;37.574;2023-06-05T09:05:16;3.70;;;1.55;;
75446;SDS011;64024;55.820;37.574;2023-06-05T09:07:42;1.98;;;1.17;;
75446;SDS011;64024;55.820;37.574;2023-06-05T09:10:21;4.07;;;2.42;;
75446;SDS011;64024;55.820;37.574;2023-06-05T09:13:02;4.05;;;2.40;;
75446;SDS011;64024;55.820;37.574;2023-06-05T09:15:30;4.75;;;2.78;;
75446;SDS011;64024;55.820;37.574;2023-06-05T09:20:29;8.35;;;3.45;;
75446;SDS011;64024;55.820;37.574;2023-06-05T09:22:56;4.38;;;3.03;;
75446;SDS011;64024;55.820;37.574;2023-06-05T09:25:22;4.80;;;2.80;;
75446;SDS011;64024;55.820;37.574;2023-06-05T09:30:53;3.30;;;1.67;;
75446;SDS011;64024;55.820;37.574;2023-06-05T09:33:22;2.45;;;1.33;;
75446;SDS011;64024;55.820;37.574;2023-06-05T09:36:10;4.20;;;2.33;;
75446;SDS011;64024;55.820;37.574;2023-06-05T09:38:39;4.18;;;1.90;;
75446;SDS011;64024;55.820;37.574;2023-06-05T09:41:06;4.95;;;2.85;;
75446;SDS011;64024;55.820;37.574;2023-06-05T09:43:33;4.38;;;3.05;;
75446;SDS011;64024;55.820;37.574;2023-06-05T09:46:05;4.53;;;3.28;;
75446;SDS011;64024;55.820;37.574;2023-06-05T09:48:35;5.97;;;3.55;;
75446;SDS011;64024;55.820;37.574;2023-06-05T09:51:09;5.70;;;3.20;;
75446;SDS011;64024;55.820;37.574;2023-06-05T09:53:38;3.58;;;3.28;;
75446;SDS011;64024;55.820;37.574;2023-06-05T09:56:11;3.55;;;2.20;;
75446;SDS011;64024;55.820;37.574;2023-06-05T09:58:40;4.03;;;1.98;;
75446;SDS011;64024;55.820;37.574;2023-06-05T10:01:09;2.38;;;1.48;;
75446;SDS011;64024;55.820;37.574;2023-06-05T10:03:38;2.20;;;1.40;;
75446;SDS011;64024;55.820;37.574;2023-06-05T10:06:07;2.42;;;1.48;;
75446;SDS011;64024;55.820;37.574;2023-06-05T10:08:33;5.82;;;1.85;;
75446;SDS011;64024;55.820;37.574;2023-06-05T10:11:00;7.30;;;2.10;;
75446;SDS011;64024;55.820;37.574;2023-06-05T10:13:27;3.55;;;1.63;;
75446;SDS011;64024;55.820;37.574;2023-06-05T10:15:54;3.97;;;1.50;;
75446;SDS011;64024;55.820;37.574;2023-06-05T10:18:22;2.47;;;1.30;;
75446;SDS011;64024;55.820;37.574;2023-06-05T10:20:47;3.05;;;1.42;;
75446;SDS011;64024;55.820;37.574;2023-06-05T10:23:17;2.65;;;1.00;;
75446;SDS011;64024;55.820;37.574;2023-06-05T10:25:45;11.20;;;3.03;;
75446;SDS011;64024;55.820;37.574;2023-06-05T10:28:29;3.25;;;1.30;;
75446;SDS011;64024;55.820;37.574;2023-06-05T10:33:53;2.10;;;1.20;;
75446;SDS011;64024;55.820;37.574;2023-06-05T10:39:27;2.35;;;0.93;;
75446;SDS011;64024;55.820;37.574;2023-06-05T10:41:54;2.17;;;1.00;;
75446;SDS011;64024;55.820;37.574;2023-06-05T10:44:37;4.50;;;1.40;;
75446;SDS011;64024;55.820;37.574;2023-06-05T10:52:49;2.42;;;0.98;;
75446;SDS011;64024;55.820;37.574;2023-06-05T10:55:16;2.33;;;0.90;;
75446;SDS011;64024;55.820;37.574;2023-06-05T11:00:26;3.03;;;1.33;;
75446;SDS011;64024;55.820;37.574;2023-06-05T11:02:53;3.83;;;1.33;;
75446;SDS011;64024;55.820;37.574;2023-06-05T11:05:19;4.50;;;1.80;;
75446;SDS011;64024;55.820;37.574;2023-06-05T11:07:45;2.70;;;1.23;;
75446;SDS011;64024;55.820;37.574;2023-06-05T11:10:12;3.60;;;1.10;;
75446;SDS011;64024;55.820;37.574;2023-06-05T11:17:48;2.47;;;1.35;;
75446;SDS011;64024;55.820;37.574;2023-06-05T11:28:04;2.80;;;1.55;;
75446;SDS011;64024;55.820;37.574;2023-06-05T11:30:37;3.47;;;2.25;;
75446;SDS011;64024;55.820;37.574;2023-06-05T11:35:47;3.80;;;2.78;;
75446;SDS011;64024;55.820;37.574;2023-06-05T11:38:17;4.40;;;3.30;;
75446;SDS011;64024;55.820;37.574;2023-06-05T11:40:44;3.97;;;2.88;;
75446;SDS011;64024;55.820;37.574;2023-06-05T11:43:11;3.92;;;3.25;;
75446;SDS011;64024;55.820;37.574;2023-06-05T11:45:39;3.50;;;2.88;;
75446;SDS011;64024;55.820;37.574;2023-06-05T11:48:12;3.67;;;3.13;;
75446;SDS011;64024;55.820;37.574;2023-06-05T11:50:39;5.38;;;3.03;;
75446;SDS011;64024;55.820;37.574;2023-06-05T11:53:19;5.38;;;3.22;;
75446;SDS011;64024;55.820;37.574;2023-06-05T11:55:45;6.78;;;3.65;;
75446;SDS011;64024;55.820;37.574;2023-06-05T11:58:21;3.67;;;3.20;;
75446;SDS011;64024;55.820;37.574;2023-06-05T12:00:47;5.00;;;3.80;;
75446;SDS011;64024;55.820;37.574;2023-06-05T12:03:16;6.47;;;4.18;;
75446;SDS011;64024;55.820;37.574;2023-06-05T12:05:46;5.43;;;3.03;;
75446;SDS011;64024;55.820;37.574;2023-06-05T12:08:25;6.78;;;3.33;;
75446;SDS011;64024;55.820;37.574;2023-06-05T12:10:57;6.47;;;3.00;;
75446;SDS011;64024;55.820;37.574;2023-06-05T12:13:43;5.57;;;3.88;;
75446;SDS011;64024;55.820;37.574;2023-06-05T12:16:17;6.10;;;3.75;;
75446;SDS011;64024;55.820;37.574;2023-06-05T12:18:44;6.03;;;2.88;;
75446;SDS011;64024;55.820;37.574;2023-06-05T12:21:29;3.85;;;2.08;;
75446;SDS011;64024;55.820;37.574;2023-06-05T12:24:01;3.28;;;2.20;;
75446;SDS011;64024;55.820;37.574;2023-06-05T12:26:27;4.75;;;1.90;;
75446;SDS011;64024;55.820;37.574;2023-06-05T12:29:03;6.20;;;2.75;;
75446;SDS011;64024;55.820;37.574;2023-06-05T12:31:33;6.05;;;1.73;;
75446;SDS011;64024;55.820;37.574;2023-06-05T12:34:01;3.72;;;1.70;;
75446;SDS011;64024;55.820;37.574;2023-06-05T12:36:29;2.97;;;1.35;;
75446;SDS011;64024;55.820;37.574;2023-06-05T12:39:01;4.65;;;1.23;;
75446;SDS011;64024;55.820;37.574;2023-06-05T12:41:31;5.03;;;1.10;;
75446;SDS011;64024;55.820;37.574;2023-06-05T12:44:00;4.53;;;1.73;;
75446;SDS011;64024;55.820;37.574;2023-06-05T12:46:30;3.65;;;1.70;;
75446;SDS011;64024;55.820;37.574;2023-06-05T12:48:57;5.53;;;1.30;;
75446;SDS011;64024;55.820;37.574;2023-06-05T12:51:27;2.33;;;0.98;;
75446;SDS011;64024;55.820;37.574;2023-06-05T12:53:56;2.60;;;1.33;;
75446;SDS011;64024;55.820;37.574;2023-06-05T12:56:23;3.60;;;2.53;;
75446;SDS011;64024;55.820;37.574;2023-06-05T12:58:53;4.65;;;1.98;;
75446;SDS011;64024;55.820;37.574;2023-06-05T13:01:21;6.82;;;2.97;;
75446;SDS011;64024;55.820;37.574;2023-06-05T13:03:48;7.03;;;2.80;;
75446;SDS011;64024;55.820;37.574;2023-06-05T13:06:14;3.95;;;2.10;;
75446;SDS011;64024;55.820;37.574;2023-06-05T13:08:39;1.85;;;1.10;;
75446;SDS011;64024;55.820;37.574;2023-06-05T13:11:05;2.70;;;1.10;;
75446;SDS011;64024;55.820;37.574;2023-06-05T13:13:31;2.55;;;1.13;;
75446;SDS011;64024;55.820;37.574;2023-06-05T13:15:58;3.08;;;1.55;;
75446;SDS011;64024;55.820;37.574;2023-06-05T13:18:27;5.75;;;1.92;;
75446;SDS011;64024;55.820;37.574;2023-06-05T13:20:54;3.90;;;1.15;;
75446;SDS011;64024;55.820;37.574;2023-06-05T13:23:19;4.00;;;1.02;;
75446;SDS011;64024;55.820;37.574;2023-06-05T13:25:45;3.72;;;1.10;;
75446;SDS011;64024;55.820;37.574;2023-06-05T13:28:11;2.63;;;1.10;;
75446;SDS011;64024;55.820;37.574;2023-06-05T13:30:37;1.55;;;1.00;;
75446;SDS011;64024;55.820;37.574;2023-06-05T13:33:02;3.97;;;1.10;;
75446;SDS011;64024;55.820;37.574;2023-06-05T13:35:28;4.95;;;1.73;;
75446;SDS011;64024;55.820;37.574;2023-06-05T13:37:54;5.50;;;1.40;;
75446;SDS011;64024;55.820;37.574;2023-06-05T13:40:19;2.30;;;1.60;;
75446;SDS011;64024;55.820;37.574;2023-06-05T13:42:45;3.00;;;1.23;;
75446;SDS011;64024;55.820;37.574;2023-06-05T13:45:11;1.75;;;1.30;;
75446;SDS011;64024;55.820;37.574;2023-06-05T13:47:37;1.60;;;1.10;;
75446;SDS011;64024;55.820;37.574;2023-06-05T13:50:03;4.88;;;1.15;;
75446;SDS011;64024;55.820;37.574;2023-06-05T13:52:29;6.13;;;1.98;;
75446;SDS011;64024;55.820;37.574;2023-06-05T13:54:54;6.53;;;1.30;;
75446;SDS011;64024;55.820;37.574;2023-06-05T13:57:20;2.28;;;0.95;;
75446;SDS011;64024;55.820;37.574;2023-06-05T13:59:46;3.30;;;1.10;;
75446;SDS011;64024;55.820;37.574;2023-06-05T14:02:12;2.85;;;1.27;;
75446;SDS011;64024;55.820;37.574;2023-06-05T14:04:37;3.78;;;3.47;;
75446;SDS011;64024;55.820;37.574;2023-06-05T14:07:03;5.05;;;4.55;;
75446;SDS011;64024;55.820;37.574;2023-06-05T14:09:30;5.88;;;4.13;;
75446;SDS011;64024;55.820;37.574;2023-06-05T14:11:56;6.07;;;3.88;;
75446;SDS011;64024;55.820;37.574;2023-06-05T14:14:23;5.88;;;3.00;;
75446;SDS011;64024;55.820;37.574;2023-06-05T14:16:49;4.90;;;3.80;;
75446;SDS011;64024;55.820;37.574;2023-06-05T14:19:16;4.97;;;3.72;;
75446;SDS011;64024;55.820;37.574;2023-06-05T14:21:42;6.68;;;4.25;;
75446;SDS011;64024;55.820;37.574;2023-06-05T14:24:08;4.30;;;3.65;;
75446;SDS011;64024;55.820;37.574;2023-06-05T14:26:35;7.93;;;2.78;;
75446;SDS011;64024;55.820;37.574;2023-06-05T14:29:02;7.53;;;1.90;;
75446;SDS011;64024;55.820;37.574;2023-06-05T14:31:28;3.40;;;1.33;;
75446;SDS011;64024;55.820;37.574;2023-06-05T14:33:54;3.63;;;1.45;;
75446;SDS011;64024;55.820;37.574;2023-06-05T14:36:19;3.85;;;3.05;;
75446;SDS011;64024;55.820;37.574;2023-06-05T14:38:45;6.60;;;5.03;;
75446;SDS011;64024;55.820;37.574;2023-06-05T14:41:11;6.07;;;4.47;;
75446;SDS011;64024;55.820;37.574;2023-06-05T14:43:37;7.50;;;3.40;;
75446;SDS011;64024;55.820;37.574;2023-06-05T14:46:03;3.47;;;1.90;;
75446;SDS011;64024;55.820;37.574;2023-06-05T14:48:30;3.85;;;1.65;;
75446;SDS011;64024;55.820;37.574;2023-06-05T14:50:56;2.72;;;1.63;;
75446;SDS011;64024;55.820;37.574;2023-06-05T14:53:22;2.63;;;1.27;;
75446;SDS011;64024;55.820;37.574;2023-06-05T14:55:47;3.55;;;1.42;;
75446;SDS011;64024;55.820;37.574;2023-06-05T14:58:13;2.78;;;1.30;;
75446;SDS011;64024;55.820;37.574;2023-06-05T15:03:05;4.30;;;2.00;;
75446;SDS011;64024;55.820;37.574;2023-06-05T15:05:31;2.15;;;1.35;;
75446;SDS011;64024;55.820;37.574;2023-06-05T15:07:57;1.77;;;0.70;;
75446;SDS011;64024;55.820;37.574;2023-06-05T15:10:23;2.08;;;1.00;;
75446;SDS011;64024;55.820;37.574;2023-06-05T15:12:49;2.60;;;1.13;;
75446;SDS011;64024;55.820;37.574;2023-06-05T15:15:21;2.92;;;1.42;;
75446;SDS011;64024;55.820;37.574;2023-06-05T15:17:47;9.52;;;3.53;;
75446;SDS011;64024;55.820;37.574;2023-06-05T15:20:13;2.58;;;1.50;;
75446;SDS011;64024;55.820;37.574;2023-06-05T15:22:39;2.22;;;1.17;;
75446;SDS011;64024;55.820;37.574;2023-06-05T15:25:05;2.15;;;1.00;;
75446;SDS011;64024;55.820;37.574;2023-06-05T15:27:31;2.65;;;1.00;;
75446;SDS011;64024;55.820;37.574;2023-06-05T15:29:59;2.05;;;0.90;;